createdAt,value
2019-03-12T00:01:01.057Z,82.08
2019-03-12T00:03:30.538Z,81.80
2019-03-12T00:05:59.885Z,82.21
2019-03-12T00:08:29.281Z,82.50
2019-03-12T00:10:58.671Z,82.74
2019-03-12T00:13:28.022Z,82.32
2019-03-12T00:15:57.435Z,82.39
2019-03-12T00:18:28.457Z,82.38
2019-03-12T00:20:56.194Z,82.56
2019-03-12T00:23:25.877Z,82.56
2019-03-12T00:25:55.290Z,82.82
2019-03-12T00:28:24.777Z,82.67
2019-03-12T00:30:54.039Z,82.75
2019-03-12T00:33:23.436Z,82.50
2019-03-12T00:35:52.749Z,83.08
2019-03-12T00:38:22.195Z,83.26
2019-03-12T00:40:51.439Z,83.58
2019-03-12T00:43:21.028Z,83.35
2019-03-12T00:45:50.447Z,82.89
2019-03-12T00:48:19.751Z,81.82
2019-03-12T00:50:49.110Z,81.19
2019-03-12T00:53:18.641Z,82.42
2019-03-12T00:55:48.062Z,82.63
2019-03-12T00:58:17.553Z,82.27
2019-03-12T01:00:47.020Z,82.09
2019-03-12T01:03:16.388Z,82.04
2019-03-12T01:05:45.706Z,82.62
2019-03-12T01:08:15.027Z,82.57
2019-03-12T01:10:44.560Z,82.45
2019-03-12T01:13:19.729Z,82.39
2019-03-12T01:15:49.216Z,82.82
2019-03-12T01:18:18.550Z,82.71
2019-03-12T01:20:48.071Z,82.45
2019-03-12T01:23:17.551Z,82.54
2019-03-12T01:25:47.023Z,82.58
2019-03-12T01:28:16.329Z,82.73
2019-03-12T01:30:45.861Z,82.40
2019-03-12T01:33:15.290Z,81.05
2019-03-12T01:35:44.717Z,81.62
2019-03-12T01:38:14.042Z,81.52
2019-03-12T01:40:43.411Z,82.00
2019-03-12T01:43:12.906Z,81.87
2019-03-12T01:45:42.418Z,79.74
2019-03-12T01:48:11.866Z,80.85
2019-03-12T01:50:41.427Z,81.32
2019-03-12T01:53:10.817Z,81.12
2019-03-12T01:55:40.244Z,81.29
2019-03-12T01:58:09.657Z,81.50
2019-03-12T02:00:39.139Z,81.25
2019-03-12T02:03:08.678Z,80.96
2019-03-12T02:05:38.139Z,80.65
2019-03-12T02:08:07.494Z,78.85
2019-03-12T02:10:37.012Z,79.88
2019-03-12T02:13:06.524Z,79.51
2019-03-12T02:15:35.930Z,79.45
2019-03-12T02:18:05.174Z,79.36
2019-03-12T02:20:34.600Z,79.37
2019-03-12T02:23:04.006Z,80.15
2019-03-12T02:25:33.478Z,78.54
2019-03-12T02:28:02.876Z,79.62
2019-03-12T02:30:32.313Z,78.06
2019-03-12T02:33:01.782Z,79.31
2019-03-12T02:35:31.117Z,80.10
2019-03-12T02:38:00.601Z,79.87
2019-03-12T02:40:30.036Z,80.32
2019-03-12T02:42:59.521Z,78.79
2019-03-12T02:45:28.958Z,79.84
2019-03-12T02:47:58.402Z,79.85
2019-03-12T02:50:27.829Z,80.00
2019-03-12T02:52:57.579Z,79.89
2019-03-12T02:55:26.871Z,79.95
2019-03-12T02:57:56.365Z,79.60
2019-03-12T03:00:25.827Z,79.71
2019-03-12T03:02:55.527Z,79.70
2019-03-12T03:05:25.007Z,79.97
2019-03-12T03:08:06.369Z,79.48
2019-03-12T03:10:35.896Z,79.30
2019-03-12T03:13:05.378Z,79.00
2019-03-12T03:15:40.133Z,79.23
2019-03-12T03:18:09.716Z,79.18
2019-03-12T03:20:39.036Z,78.93
2019-03-12T03:23:08.479Z,79.13
2019-03-12T03:25:37.815Z,78.83
2019-03-12T03:28:07.228Z,79.36
2019-03-12T03:30:36.727Z,79.02
2019-03-12T03:33:06.149Z,78.85
2019-03-12T03:35:35.564Z,79.08
2019-03-12T03:38:05.107Z,79.01
2019-03-12T03:40:34.528Z,77.98
2019-03-12T03:43:04.021Z,78.47
2019-03-12T03:45:33.450Z,78.44
2019-03-12T03:48:02.897Z,78.54
2019-03-12T03:50:32.340Z,78.53
2019-03-12T03:53:01.835Z,78.97
2019-03-12T03:55:31.146Z,79.06
2019-03-12T03:58:00.565Z,79.27
2019-03-12T04:00:29.966Z,80.04
2019-03-12T04:02:59.341Z,79.40
2019-03-12T04:05:28.727Z,80.04
2019-03-12T04:07:58.289Z,80.00
2019-03-12T04:10:27.638Z,80.60
2019-03-12T04:12:56.972Z,80.42
2019-03-12T04:15:26.635Z,80.15
2019-03-12T04:17:56.062Z,80.06
2019-03-12T04:20:25.480Z,80.87
2019-03-12T04:22:54.928Z,80.35
2019-03-12T04:25:24.243Z,80.22
2019-03-12T04:27:53.701Z,80.02
2019-03-12T04:30:23.011Z,78.92
2019-03-12T04:32:52.471Z,78.23
2019-03-12T04:35:22.590Z,79.68
2019-03-12T04:37:52.004Z,80.30
2019-03-12T04:40:21.568Z,80.21
2019-03-12T04:42:51.027Z,78.81
2019-03-12T04:45:20.437Z,80.12
2019-03-12T04:47:50.050Z,80.63
2019-03-12T04:50:19.387Z,78.98
2019-03-12T04:52:48.887Z,80.44
2019-03-12T04:55:18.445Z,81.09
2019-03-12T04:57:47.957Z,81.06
2019-03-12T05:00:17.568Z,81.68
2019-03-12T05:02:47.133Z,82.06
2019-03-12T05:05:16.382Z,82.20
2019-03-12T05:07:45.835Z,81.67
2019-03-12T05:10:15.241Z,81.64
2019-03-12T05:12:44.619Z,83.03
2019-03-12T05:15:14.328Z,82.90
2019-03-12T05:17:44.280Z,82.64
2019-03-12T05:20:14.245Z,82.62
2019-03-12T05:22:43.625Z,82.38
2019-03-12T05:25:13.234Z,82.63
2019-03-12T05:27:42.601Z,82.26
2019-03-12T05:30:14.640Z,82.83
2019-03-12T05:32:43.984Z,83.03
2019-03-12T05:35:13.395Z,82.92
2019-03-12T05:37:42.819Z,83.32
2019-03-12T05:40:12.262Z,83.36
2019-03-12T05:42:41.722Z,83.12
2019-03-12T05:45:11.519Z,83.38
2019-03-12T05:47:40.971Z,83.19
2019-03-12T05:50:11.080Z,82.93
2019-03-12T05:52:40.578Z,82.82
2019-03-12T05:55:10.115Z,82.85
2019-03-12T05:57:39.462Z,83.16
2019-03-12T06:00:10.166Z,83.42
2019-03-12T06:02:39.645Z,83.58
2019-03-12T06:05:09.232Z,83.31
2019-03-12T06:07:38.550Z,83.21
2019-03-12T06:10:08.601Z,82.64
2019-03-12T06:12:38.000Z,82.49
2019-03-12T06:15:08.065Z,82.09
2019-03-12T06:17:37.638Z,82.06
2019-03-12T06:20:07.768Z,81.98
2019-03-12T06:22:37.247Z,81.95
2019-03-12T06:25:06.858Z,81.17
2019-03-12T06:29:07.544Z,81.84
2019-03-12T06:32:03.625Z,83.00
2019-03-12T06:34:45.862Z,83.33
2019-03-12T06:37:32.882Z,84.35
2019-03-12T06:40:09.383Z,83.16
2019-03-12T06:42:55.452Z,84.82
2019-03-12T06:45:43.925Z,86.32
2019-03-12T06:48:38.014Z,86.92
2019-03-12T06:51:24.902Z,88.00
2019-03-12T06:54:06.579Z,88.00
2019-03-12T06:56:54.952Z,88.18
2019-03-12T06:59:37.921Z,87.92
2019-03-12T07:02:26.268Z,87.81
2019-03-12T07:05:15.220Z,88.11
2019-03-12T07:07:50.712Z,87.93
2019-03-12T07:10:41.656Z,88.08
2019-03-12T07:13:32.968Z,87.76
2019-03-12T07:16:24.349Z,87.41
2019-03-12T07:19:11.572Z,86.18
2019-03-12T07:22:00.012Z,86.51
2019-03-12T07:24:48.329Z,84.93
2019-03-12T07:27:35.141Z,83.62
2019-03-12T07:30:14.798Z,84.55
2019-03-12T07:33:06.094Z,83.58
2019-03-12T07:35:57.582Z,83.88
2019-03-12T07:38:38.828Z,83.77
2019-03-12T07:41:32.130Z,83.37
2019-03-12T07:44:01.429Z,82.49
2019-03-12T07:56:39.735Z,79.80
2019-03-12T07:59:30.720Z,79.02
2019-03-12T08:02:12.452Z,76.32
2019-03-12T08:04:52.023Z,77.20
2019-03-12T08:07:49.432Z,75.12
2019-03-12T08:10:40.494Z,73.88
2019-03-12T08:13:19.524Z,72.22
2019-03-12T08:15:57.674Z,71.62
2019-03-12T08:18:46.009Z,70.07
2019-03-12T08:21:37.538Z,69.50
2019-03-12T08:24:31.789Z,68.43
2019-03-12T08:27:21.678Z,67.38
2019-03-12T08:30:13.276Z,68.54
2019-03-12T08:33:01.786Z,68.10
2019-03-12T08:35:53.269Z,65.79
2019-03-12T08:38:47.561Z,66.97
2019-03-12T08:41:33.465Z,66.94
2019-03-12T08:44:32.785Z,65.57
2019-03-12T08:47:16.790Z,65.59
2019-03-12T08:50:05.439Z,65.59
2019-03-12T08:52:56.597Z,65.27
2019-03-12T08:55:47.897Z,64.27
2019-03-12T08:58:32.123Z,64.21
2019-03-12T09:01:19.254Z,64.69
2019-03-12T09:04:19.776Z,65.22
2019-03-12T09:07:13.988Z,65.28
2019-03-12T09:10:08.052Z,63.64
2019-03-12T09:12:45.969Z,63.38
2019-03-12T09:15:40.035Z,62.78
2019-03-12T09:18:43.596Z,62.31
2019-03-12T09:21:31.734Z,61.82
2019-03-12T09:24:12.453Z,61.74
2019-03-12T09:26:53.231Z,60.76
2019-03-12T09:29:37.467Z,58.94
2019-03-12T09:32:28.531Z,58.83
2019-03-12T09:35:15.412Z,59.38
2019-03-12T09:38:15.777Z,58.38
2019-03-12T09:41:06.586Z,59.84
2019-03-12T09:44:01.120Z,58.25
2019-03-12T09:46:49.600Z,58.62
2019-03-12T09:49:37.750Z,59.13
2019-03-12T09:52:15.021Z,57.97
2019-03-12T09:54:58.834Z,54.50
2019-03-12T09:57:56.537Z,55.75
2019-03-12T10:00:45.187Z,53.13
2019-03-12T10:03:33.418Z,53.74
2019-03-12T10:09:51.644Z,54.16
2019-03-12T10:12:48.590Z,53.88
2019-03-12T10:15:30.543Z,52.60
2019-03-12T10:18:20.085Z,53.65
2019-03-12T10:21:11.345Z,55.44
2019-03-12T10:23:45.401Z,55.71
2019-03-12T10:26:39.994Z,56.74
2019-03-12T10:29:43.329Z,56.21
2019-03-12T10:32:28.920Z,56.41
2019-03-12T10:41:09.237Z,56.28
2019-03-12T10:44:36.500Z,54.86
2019-03-12T10:47:10.262Z,55.05
2019-03-12T10:49:39.714Z,55.05
2019-03-12T10:52:09.266Z,56.70
2019-03-12T10:54:38.527Z,56.58
2019-03-12T10:57:08.231Z,57.02
2019-03-12T10:59:37.680Z,55.66
2019-03-12T11:02:07.168Z,56.32
2019-03-12T11:05:17.192Z,56.15
2019-03-12T11:08:06.659Z,56.40
2019-03-12T11:10:33.167Z,55.95
2019-03-12T11:13:08.403Z,55.81
2019-03-12T11:15:37.800Z,55.82
2019-03-12T11:18:07.387Z,56.04
2019-03-12T11:20:36.696Z,55.72
2019-03-12T11:26:52.023Z,54.64
2019-03-12T11:29:21.424Z,52.73
2019-03-12T11:31:50.779Z,53.65
2019-03-12T11:34:20.290Z,53.13
2019-03-12T11:36:50.191Z,51.70
2019-03-12T11:39:19.574Z,52.79
2019-03-12T11:41:48.994Z,50.89
2019-03-12T11:44:18.395Z,52.65
2019-03-12T11:46:48.084Z,52.73
2019-03-12T11:49:17.627Z,52.17
2019-03-12T11:51:47.248Z,52.58
2019-03-12T11:54:16.861Z,52.36
2019-03-12T11:56:46.221Z,53.49
2019-03-12T11:59:15.633Z,52.56
2019-03-12T12:01:45.273Z,52.92
2019-03-12T12:04:14.762Z,53.74
2019-03-12T12:07:50.589Z,52.34
2019-03-12T12:10:02.657Z,52.44
2019-03-12T12:12:32.133Z,51.75
2019-03-12T12:15:01.401Z,52.97
2019-03-12T12:22:01.757Z,51.80
2019-03-12T12:24:31.299Z,52.19
2019-03-12T12:27:00.919Z,51.84
2019-03-12T12:33:14.162Z,50.62
2019-03-12T12:35:43.573Z,50.11
2019-03-12T12:38:13.077Z,51.75
2019-03-12T12:40:42.643Z,51.40
2019-03-12T12:43:12.034Z,52.45
2019-03-12T12:45:41.623Z,51.65
2019-03-12T12:48:11.236Z,51.94
2019-03-12T12:50:43.158Z,51.43
2019-03-12T12:53:16.023Z,49.48
2019-03-12T12:55:46.317Z,49.19
2019-03-12T12:58:16.243Z,47.40
2019-03-12T13:00:46.076Z,46.32
2019-03-12T13:03:16.017Z,48.37
2019-03-12T13:05:45.866Z,49.54
2019-03-12T13:08:18.571Z,49.22
2019-03-12T13:10:45.545Z,48.90
2019-03-12T13:13:15.340Z,48.27
2019-03-12T13:15:47.358Z,47.44
2019-03-12T13:18:17.403Z,46.79
2019-03-12T13:20:46.828Z,45.85
2019-03-12T13:23:30.738Z,48.57
2019-03-12T13:26:00.656Z,46.77
2019-03-12T13:28:37.842Z,46.16
2019-03-12T13:31:09.128Z,46.61
2019-03-12T13:33:41.321Z,47.03
2019-03-12T13:36:16.159Z,45.50
2019-03-12T13:38:47.734Z,46.22
2019-03-12T13:41:15.407Z,45.33
2019-03-12T13:43:45.246Z,45.87
2019-03-12T13:46:18.138Z,45.33
2019-03-12T13:48:48.594Z,45.34
2019-03-12T13:51:18.600Z,45.71
2019-03-12T13:53:48.652Z,45.42
2019-03-12T13:56:17.803Z,45.16
2019-03-12T13:58:46.992Z,44.91
2019-03-12T14:01:16.446Z,43.64
2019-03-12T14:03:45.871Z,44.52
2019-03-12T14:06:15.439Z,44.93
2019-03-12T14:08:44.950Z,45.53
2019-03-12T14:11:14.366Z,43.99
2019-03-12T14:13:43.775Z,44.52
2019-03-12T14:16:13.284Z,44.31
2019-03-12T14:18:42.878Z,44.22
2019-03-12T14:21:14.393Z,44.20
2019-03-12T14:23:56.234Z,44.31
2019-03-12T14:26:25.422Z,44.72
2019-03-12T14:28:54.489Z,43.88
2019-03-12T14:31:24.197Z,43.93
2019-03-12T14:33:53.644Z,44.27
2019-03-12T14:36:22.863Z,43.93
2019-03-12T14:38:52.149Z,44.09
2019-03-12T14:41:21.532Z,43.73
2019-03-12T14:43:50.805Z,45.00
2019-03-12T14:46:19.979Z,44.42
2019-03-12T14:49:02.631Z,44.11
2019-03-12T14:51:57.386Z,44.20
2019-03-12T14:54:26.646Z,43.58
2019-03-12T14:56:55.932Z,42.18
2019-03-12T15:03:23.965Z,43.74
2019-03-12T15:05:53.372Z,43.63
2019-03-12T15:08:22.694Z,44.05
2019-03-12T15:10:51.985Z,43.74
2019-03-12T15:13:21.211Z,43.30
2019-03-12T15:15:50.265Z,43.31
2019-03-12T15:18:30.391Z,44.62
2019-03-12T15:21:15.183Z,43.23
2019-03-12T15:24:18.512Z,44.11
2019-03-12T15:26:54.883Z,44.29
2019-03-12T15:29:30.817Z,44.66
2019-03-12T15:33:06.259Z,44.24
2019-03-12T15:35:41.463Z,43.96
2019-03-12T15:38:38.797Z,44.17
2019-03-12T15:41:25.133Z,44.29
2019-03-12T15:48:01.797Z,44.51
2019-03-12T15:50:35.043Z,44.61
2019-03-12T15:53:07.638Z,44.65
2019-03-12T15:55:45.359Z,44.43
2019-03-12T15:58:17.082Z,44.42
2019-03-12T16:00:46.857Z,45.44
2019-03-12T16:03:16.094Z,44.19
2019-03-12T16:05:45.338Z,43.93
2019-03-12T16:08:14.639Z,44.21
2019-03-12T16:10:56.814Z,44.33
2019-03-12T16:13:13.167Z,44.83
2019-03-12T16:15:42.387Z,44.29
2019-03-12T16:18:14.394Z,44.83
2019-03-12T16:20:41.020Z,44.84
2019-03-12T16:23:10.215Z,45.39
2019-03-12T16:25:39.544Z,44.89
2019-03-12T16:28:08.886Z,44.83
2019-03-12T16:30:37.763Z,45.03
2019-03-12T16:33:07.158Z,44.63
2019-03-12T16:35:38.660Z,44.82
2019-03-12T16:38:08.013Z,44.73
2019-03-12T16:40:37.206Z,45.04
2019-03-12T16:43:06.755Z,44.54
2019-03-12T16:45:35.968Z,44.75
2019-03-12T16:48:05.434Z,44.18
2019-03-12T16:50:34.693Z,43.99
2019-03-12T16:53:04.052Z,44.51
2019-03-12T16:55:33.210Z,44.03
2019-03-12T16:58:02.527Z,43.96
2019-03-12T17:00:31.820Z,44.77
2019-03-12T17:03:01.041Z,45.02
2019-03-12T17:05:30.404Z,45.13
2019-03-12T17:07:59.694Z,45.19
2019-03-12T17:10:28.820Z,45.35
2019-03-12T17:12:58.094Z,46.06
2019-03-12T17:15:27.333Z,45.37
2019-03-12T17:17:56.513Z,46.04
2019-03-12T17:20:25.758Z,47.70
2019-03-12T17:22:54.893Z,46.39
2019-03-12T17:25:47.035Z,47.15
2019-03-12T17:28:16.162Z,47.33
2019-03-12T17:31:04.012Z,47.11
2019-03-12T17:34:08.182Z,47.14
2019-03-12T17:36:37.639Z,47.25
2019-03-12T17:39:10.952Z,48.22
2019-03-12T17:41:46.405Z,49.28
2019-03-12T17:44:15.446Z,48.72
2019-03-12T17:47:53.181Z,48.22
2019-03-12T17:50:22.945Z,49.71
2019-03-12T17:52:52.128Z,48.48
2019-03-12T17:55:21.367Z,48.82
2019-03-12T17:57:51.249Z,48.17
2019-03-12T18:00:20.128Z,48.80
2019-03-12T18:02:49.441Z,47.98
2019-03-12T18:05:24.330Z,46.74
2019-03-12T18:08:18.969Z,47.88
2019-03-12T18:11:16.448Z,48.04
2019-03-12T18:13:48.594Z,49.31
2019-03-12T18:17:50.557Z,51.72
2019-03-12T18:20:19.677Z,53.79
2019-03-12T18:22:49.070Z,54.84
2019-03-12T18:25:48.332Z,56.34
2019-03-12T18:28:21.145Z,57.88
2019-03-12T18:30:50.480Z,60.48
2019-03-12T18:33:19.747Z,61.66
2019-03-12T18:39:55.984Z,64.26
2019-03-12T18:42:47.717Z,63.43
2019-03-12T18:45:26.801Z,64.04
2019-03-12T18:48:14.454Z,64.19
2019-03-12T18:50:44.775Z,62.66
2019-03-12T18:53:14.583Z,63.08
2019-03-12T18:56:07.380Z,64.44
2019-03-12T18:59:02.460Z,65.33
2019-03-12T19:01:31.388Z,67.34
2019-03-12T19:04:00.267Z,66.73
2019-03-12T19:06:29.441Z,68.14
2019-03-12T19:08:58.292Z,67.78
2019-03-12T19:11:27.171Z,67.74
2019-03-12T19:14:14.206Z,69.10
2019-03-12T19:16:44.380Z,69.24
2019-03-12T19:19:16.242Z,70.68
2019-03-12T19:22:08.195Z,71.74
2019-03-12T19:24:25.289Z,71.67
2019-03-12T19:26:54.277Z,72.01
2019-03-12T19:29:23.172Z,72.69
2019-03-12T19:32:16.964Z,73.06
2019-03-12T19:34:57.352Z,72.32
2019-03-12T19:37:35.483Z,73.09
2019-03-12T19:40:14.167Z,73.84
2019-03-12T19:43:09.117Z,74.83
2019-03-12T19:45:38.501Z,75.90
2019-03-12T19:48:25.772Z,76.74
2019-03-12T19:51:14.298Z,78.96
2019-03-12T19:57:23.378Z,79.67
2019-03-12T20:00:34.278Z,80.49
2019-03-12T20:03:10.776Z,80.74
2019-03-12T20:06:00.074Z,80.06
2019-03-12T20:08:33.717Z,79.51
2019-03-12T20:11:48.406Z,78.96
2019-03-12T20:14:54.383Z,78.79
2019-03-12T20:18:00.103Z,79.32
2019-03-12T20:20:55.977Z,80.31
2019-03-12T20:24:08.542Z,80.23
2019-03-12T20:27:16.849Z,80.90
2019-03-12T20:30:29.389Z,80.64
2019-03-12T20:33:55.323Z,82.22
2019-03-12T20:37:00.951Z,81.79
2019-03-12T20:40:26.759Z,82.04
2019-03-12T20:43:50.141Z,81.48
2019-03-12T20:47:02.815Z,80.87
2019-03-12T20:50:16.978Z,82.33
2019-03-12T20:53:46.051Z,82.48
2019-03-12T20:56:55.411Z,82.41
2019-03-12T21:00:09.395Z,82.28
2019-03-12T21:03:25.179Z,82.49
2019-03-12T21:06:44.575Z,82.23
2019-03-12T21:10:00.746Z,82.41
2019-03-12T21:13:01.703Z,83.40
2019-03-12T21:16:29.560Z,82.95
2019-03-12T21:19:39.631Z,83.11
2019-03-12T21:22:37.660Z,82.13
2019-03-12T21:25:50.330Z,82.65
2019-03-12T21:29:03.962Z,82.24
2019-03-12T21:31:32.817Z,81.87
2019-03-12T21:34:01.708Z,82.41
2019-03-12T21:36:31.185Z,82.64
2019-03-12T21:38:59.541Z,82.91
2019-03-12T21:41:28.446Z,83.02
2019-03-12T21:43:57.407Z,83.25
2019-03-12T21:46:26.321Z,82.88
2019-03-12T21:48:55.228Z,82.58
2019-03-12T21:51:24.123Z,82.78
2019-03-12T21:53:53.012Z,82.86
2019-03-12T21:56:21.990Z,83.34
2019-03-12T21:58:51.027Z,82.79
2019-03-12T22:01:19.856Z,82.45
2019-03-12T22:03:48.727Z,82.58
2019-03-12T22:06:17.605Z,82.76
2019-03-12T22:08:46.458Z,82.57
2019-03-12T22:11:15.427Z,83.58
2019-03-12T22:13:44.409Z,83.33
2019-03-12T22:16:13.226Z,82.09
2019-03-12T22:18:42.123Z,83.40
2019-03-12T22:21:11.041Z,84.11
2019-03-12T22:23:43.276Z,83.27
2019-03-12T22:26:12.163Z,82.88
2019-03-12T22:28:41.017Z,83.03
2019-03-12T22:31:09.964Z,82.74
2019-03-12T22:33:38.856Z,82.48
2019-03-12T22:36:07.818Z,83.57
2019-03-12T22:38:36.737Z,82.79
2019-03-12T22:41:05.627Z,82.61
2019-03-12T22:43:34.501Z,82.72
2019-03-12T22:46:03.355Z,82.32
2019-03-12T22:48:32.266Z,81.66
2019-03-12T22:51:01.118Z,82.04
2019-03-12T22:53:30.083Z,82.76
2019-03-12T22:55:58.914Z,82.33
2019-03-12T22:58:27.828Z,82.01
2019-03-12T23:00:56.721Z,81.63
2019-03-12T23:03:25.626Z,81.50
2019-03-12T23:05:54.501Z,82.21
2019-03-12T23:08:23.390Z,82.14
2019-03-12T23:10:52.285Z,81.76
2019-03-12T23:13:21.189Z,82.07
2019-03-12T23:15:50.054Z,81.88
2019-03-12T23:18:19.056Z,81.75
2019-03-12T23:20:47.923Z,81.59
2019-03-12T23:23:16.845Z,81.25
2019-03-12T23:25:45.735Z,81.14
2019-03-12T23:28:14.636Z,81.31
2019-03-12T23:30:43.525Z,80.37
2019-03-12T23:33:12.483Z,81.13
2019-03-12T23:35:41.340Z,80.78
2019-03-12T23:38:10.189Z,80.90
2019-03-12T23:40:39.118Z,81.43
2019-03-12T23:43:08.014Z,81.70
2019-03-12T23:45:36.906Z,81.39
2019-03-12T23:48:05.789Z,82.01
2019-03-12T23:50:34.720Z,81.91
2019-03-12T23:53:03.675Z,81.44
2019-03-12T23:55:32.786Z,80.70
2019-03-12T23:58:01.607Z,80.57
